Time;durP1;ratioP1;P1;durP2;ratioP2;P2;SDS_P1;SDS_P2;PMS_P1;PMS_P2;Temp;Humidity;BMP_temperature;BMP_pressure;BME280_temperature;BME280_humidity;BME280_pressure;Samples;Min_cycle;Max_cycle;Signal;HPM_P1;HPM_P2
2023/10/18 00:01:41;;;;;;;2.67;2.40;;;;;;;;;;5058527;28;20254;-90
2023/10/18 00:04:14;;;;;;;3.30;2.50;;;;;;;;;;5059414;28;20227;-89
2023/10/18 00:06:41;;;;;;;4.40;2.67;;;;;;;;;;5061266;28;20207;-90
2023/10/18 00:11:49;;;;;;;4.80;2.33;;;;;;;;;;5054226;28;20668;-90
2023/10/18 00:14:18;;;;;;;4.20;2.70;;;;;;;;;;5055410;28;20223;-89
2023/10/18 00:16:45;;;;;;;3.83;2.30;;;;;;;;;;5055395;28;20200;-91
2023/10/18 00:19:14;;;;;;;4.70;2.40;;;;;;;;;;5054376;28;20226;-90
2023/10/18 00:21:41;;;;;;;3.38;2.45;;;;;;;;;;5054491;28;20188;-90
2023/10/18 00:24:09;;;;;;;4.15;2.22;;;;;;;;;;5054068;28;20239;-89
2023/10/18 00:26:37;;;;;;;5.03;2.40;;;;;;;;;;5054753;28;20195;-91
2023/10/18 00:29:04;;;;;;;4.03;2.60;;;;;;;;;;5054389;28;20217;-91
2023/10/18 00:31:32;;;;;;;5.22;2.45;;;;;;;;;;5054460;28;20199;-90
2023/10/18 00:34:04;;;;;;;4.88;2.35;;;;;;;;;;5054763;28;20273;-89
2023/10/18 00:36:33;;;;;;;5.15;2.90;;;;;;;;;;5054745;28;20203;-91
2023/10/18 00:39:14;;;;;;;2.97;2.15;;;;;;;;;;5053924;28;20207;-89
2023/10/18 00:41:44;;;;;;;4.25;2.35;;;;;;;;;;5054158;28;20207;-90
2023/10/18 00:44:12;;;;;;;3.63;2.40;;;;;;;;;;5053679;28;20232;-90
2023/10/18 00:46:39;;;;;;;5.90;2.20;;;;;;;;;;5054298;28;20573;-89
2023/10/18 00:49:14;;;;;;;4.43;2.40;;;;;;;;;;5054264;28;20269;-90
2023/10/18 00:51:43;;;;;;;5.20;2.50;;;;;;;;;;5054050;28;20191;-90
2023/10/18 00:54:11;;;;;;;4.03;2.30;;;;;;;;;;5053396;28;20199;-90
2023/10/18 00:56:40;;;;;;;3.85;2.47;;;;;;;;;;5053466;28;20704;-89
2023/10/18 00:59:14;;;;;;;4.28;2.20;;;;;;;;;;5036048;28;20204;-87
2023/10/18 01:01:44;;;;;;;4.63;2.40;;;;;;;;;;5052868;28;20849;-90
2023/10/18 01:04:12;;;;;;;5.10;2.42;;;;;;;;;;5052588;28;20230;-90
2023/10/18 01:06:50;;;;;;;3.90;2.55;;;;;;;;;;5053270;28;20192;-89
2023/10/18 01:09:17;;;;;;;4.28;2.40;;;;;;;;;;5053842;28;20603;-89
2023/10/18 01:11:46;;;;;;;5.68;2.42;;;;;;;;;;5052886;28;20822;-91
2023/10/18 01:14:17;;;;;;;5.22;2.40;;;;;;;;;;5053435;28;20204;-91
2023/10/18 01:16:44;;;;;;;2.97;2.33;;;;;;;;;;5053497;28;20246;-90
2023/10/18 01:19:14;;;;;;;4.88;2.33;;;;;;;;;;5054254;28;20285;-89
2023/10/18 01:21:45;;;;;;;2.90;2.17;;;;;;;;;;5053496;28;20208;-89
2023/10/18 01:24:15;;;;;;;3.28;2.38;;;;;;;;;;5053439;28;20234;-90
2023/10/18 01:26:44;;;;;;;7.25;2.30;;;;;;;;;;5053089;28;20570;-89
2023/10/18 01:29:11;;;;;;;4.03;2.50;;;;;;;;;;5053590;28;20200;-90
2023/10/18 01:31:44;;;;;;;5.05;2.40;;;;;;;;;;5053839;28;20254;-90
2023/10/18 01:34:11;;;;;;;2.58;2.20;;;;;;;;;;5053127;28;20287;-89
2023/10/18 01:36:42;;;;;;;4.35;2.78;;;;;;;;;;5053322;28;20509;-89
2023/10/18 01:39:21;;;;;;;4.88;2.40;;;;;;;;;;5052893;28;20241;-87
2023/10/18 01:41:50;;;;;;;9.40;2.40;;;;;;;;;;5052977;28;20217;-89
2023/10/18 01:44:27;;;;;;;4.30;2.50;;;;;;;;;;5053217;28;20227;-89
2023/10/18 01:46:55;;;;;;;3.35;2.15;;;;;;;;;;5053206;28;20227;-90
2023/10/18 01:49:25;;;;;;;2.58;2.22;;;;;;;;;;5053797;28;20199;-90
2023/10/18 01:51:53;;;;;;;3.75;2.58;;;;;;;;;;5057346;28;20225;-90
2023/10/18 01:54:25;;;;;;;4.15;2.30;;;;;;;;;;5039198;28;20291;-90
2023/10/18 01:56:57;;;;;;;3.58;2.30;;;;;;;;;;5057425;28;20216;-91
2023/10/18 01:59:27;;;;;;;2.85;2.20;;;;;;;;;;5057392;28;20640;-91
2023/10/18 02:01:57;;;;;;;4.45;2.70;;;;;;;;;;5058750;28;20199;-89
2023/10/18 02:04:30;;;;;;;3.03;2.70;;;;;;;;;;5063008;28;20291;-90
2023/10/18 02:06:59;;;;;;;3.93;2.50;;;;;;;;;;5064927;28;20670;-90
2023/10/18 02:09:35;;;;;;;5.45;3.05;;;;;;;;;;5064805;28;20199;-90
2023/10/18 02:12:05;;;;;;;6.05;2.83;;;;;;;;;;5064380;28;20192;-90
2023/10/18 02:14:33;;;;;;;4.88;3.00;;;;;;;;;;5048292;28;20216;-89
2023/10/18 02:17:00;;;;;;;5.38;2.92;;;;;;;;;;5039072;28;20204;-90
2023/10/18 02:19:28;;;;;;;6.68;3.05;;;;;;;;;;5036660;28;20224;-89
2023/10/18 02:21:56;;;;;;;4.07;3.03;;;;;;;;;;5037749;28;20288;-89
2023/10/18 02:24:24;;;;;;;4.22;2.78;;;;;;;;;;5036310;28;20279;-89
2023/10/18 02:26:56;;;;;;;5.60;3.40;;;;;;;;;;5019674;28;20328;-90
2023/10/18 02:29:25;;;;;;;9.50;3.13;;;;;;;;;;5036615;28;20262;-89
2023/10/18 02:31:56;;;;;;;4.43;3.03;;;;;;;;;;5019319;28;20203;-89
2023/10/18 02:34:24;;;;;;;5.70;2.93;;;;;;;;;;5036722;28;20235;-89
2023/10/18 02:36:52;;;;;;;5.20;3.20;;;;;;;;;;5045895;28;20730;-88
2023/10/18 02:39:24;;;;;;;4.03;3.00;;;;;;;;;;5036055;28;20192;-90
2023/10/18 02:41:53;;;;;;;4.47;3.10;;;;;;;;;;5036784;28;20668;-90
2023/10/18 02:44:23;;;;;;;5.37;3.10;;;;;;;;;;5036802;28;20314;-90
2023/10/18 02:46:54;;;;;;;3.60;2.70;;;;;;;;;;5036125;28;20209;-90
2023/10/18 02:49:23;;;;;;;4.87;3.07;;;;;;;;;;5018797;28;20578;-91
2023/10/18 02:51:51;;;;;;;3.60;3.30;;;;;;;;;;5036177;28;20300;-91
2023/10/18 02:54:22;;;;;;;3.63;2.73;;;;;;;;;;5036173;28;20638;-90
2023/10/18 02:56:53;;;;;;;5.73;2.87;;;;;;;;;;5036320;28;20200;-90
2023/10/18 02:59:21;;;;;;;6.35;3.00;;;;;;;;;;5036409;28;20197;-90
2023/10/18 03:01:50;;;;;;;5.07;3.10;;;;;;;;;;5036438;28;20255;-90
2023/10/18 03:04:22;;;;;;;5.33;3.00;;;;;;;;;;5035738;28;20710;-90
2023/10/18 03:06:50;;;;;;;3.83;3.00;;;;;;;;;;5035829;28;20258;-91
2023/10/18 03:09:27;;;;;;;3.77;2.80;;;;;;;;;;5035658;28;20673;-89
2023/10/18 03:11:56;;;;;;;5.27;3.13;;;;;;;;;;5035526;28;20200;-90
2023/10/18 03:14:39;;;;;;;4.73;3.37;;;;;;;;;;5036245;28;20285;-89
2023/10/18 03:17:15;;;;;;;4.23;3.00;;;;;;;;;;5036034;28;20265;-90
2023/10/18 03:19:49;;;;;;;6.73;3.07;;;;;;;;;;5051772;28;20214;-90
2023/10/18 03:22:19;;;;;;;6.57;3.00;;;;;;;;;;5055042;28;20202;-90
2023/10/18 03:24:46;;;;;;;4.33;2.80;;;;;;;;;;5055597;28;20327;-90
2023/10/18 03:27:14;;;;;;;4.03;2.87;;;;;;;;;;5055672;28;20234;-90
2023/10/18 03:29:43;;;;;;;5.87;3.30;;;;;;;;;;5055581;28;20994;-89
2023/10/18 03:32:14;;;;;;;4.30;3.00;;;;;;;;;;5055138;28;20286;-89
2023/10/18 03:34:42;;;;;;;4.10;2.63;;;;;;;;;;5055694;28;20218;-90
2023/10/18 03:37:18;;;;;;;6.43;3.40;;;;;;;;;;5055120;28;20644;-90
2023/10/18 03:39:47;;;;;;;4.67;2.97;;;;;;;;;;5054293;28;20973;-89
2023/10/18 03:42:30;;;;;;;3.60;3.03;;;;;;;;;;5055238;28;20204;-90
2023/10/18 03:44:58;;;;;;;4.37;3.20;;;;;;;;;;5054956;28;20314;-90
2023/10/18 03:47:25;;;;;;;3.47;2.90;;;;;;;;;;5055223;28;20227;-89
2023/10/18 03:49:53;;;;;;;3.75;2.85;;;;;;;;;;5054777;28;20581;-89
2023/10/18 03:52:27;;;;;;;4.03;3.07;;;;;;;;;;5055124;28;20283;-90
2023/10/18 03:55:06;;;;;;;3.80;2.80;;;;;;;;;;5054869;28;20281;-90
2023/10/18 03:57:39;;;;;;;4.80;2.90;;;;;;;;;;5054695;28;20195;-89
2023/10/18 04:00:28;;;;;;;6.30;3.20;;;;;;;;;;5056013;28;20306;-90
2023/10/18 04:02:59;;;;;;;5.73;3.30;;;;;;;;;;5055089;28;20638;-90
2023/10/18 04:05:35;;;;;;;3.47;2.90;;;;;;;;;;5054421;28;20229;-89
2023/10/18 04:08:06;;;;;;;6.33;3.10;;;;;;;;;;5054899;28;20620;-91
2023/10/18 04:10:35;;;;;;;5.47;3.10;;;;;;;;;;5054824;28;20196;-90
2023/10/18 04:13:04;;;;;;;5.17;3.03;;;;;;;;;;5054305;28;20813;-90
2023/10/18 04:15:37;;;;;;;5.93;3.00;;;;;;;;;;5054811;28;20219;-90
2023/10/18 04:18:12;;;;;;;3.83;3.00;;;;;;;;;;5056502;28;20256;-89
2023/10/18 04:20:40;;;;;;;4.10;2.87;;;;;;;;;;5060125;28;20203;-89
2023/10/18 04:23:14;;;;;;;4.73;2.90;;;;;;;;;;5060480;28;20203;-92
2023/10/18 04:25:41;;;;;;;4.57;2.70;;;;;;;;;;5060680;28;20246;-88
2023/10/18 04:28:10;;;;;;;4.33;2.80;;;;;;;;;;5060926;28;20222;-90
2023/10/18 04:30:38;;;;;;;6.33;2.80;;;;;;;;;;5060587;28;20202;-90
2023/10/18 04:33:24;;;;;;;5.90;2.80;;;;;;;;;;5056363;28;20218;-90
2023/10/18 04:35:55;;;;;;;5.30;2.70;;;;;;;;;;5054963;28;20208;-90
2023/10/18 04:38:29;;;;;;;4.67;3.07;;;;;;;;;;5055206;28;20207;-89
2023/10/18 04:41:04;;;;;;;5.73;3.07;;;;;;;;;;5054965;28;20238;-91
2023/10/18 04:43:33;;;;;;;3.23;2.87;;;;;;;;;;5054403;28;20598;-90
2023/10/18 04:46:07;;;;;;;4.33;2.90;;;;;;;;;;5053764;28;20212;-90
2023/10/18 04:49:00;;;;;;;3.90;3.10;;;;;;;;;;5054480;28;20546;-90
2023/10/18 04:51:27;;;;;;;4.57;3.23;;;;;;;;;;5053500;28;20257;-89
2023/10/18 04:53:58;;;;;;;7.30;3.53;;;;;;;;;;5054110;28;20226;-89
2023/10/18 04:56:34;;;;;;;4.35;3.60;;;;;;;;;;5053832;28;20210;-89
2023/10/18 04:59:06;;;;;;;4.77;3.83;;;;;;;;;;5035896;28;20215;-88
2023/10/18 05:01:36;;;;;;;5.77;3.77;;;;;;;;;;5053531;28;20241;-88
2023/10/18 05:06:45;;;;;;;5.10;3.73;;;;;;;;;;5052899;28;20208;-87
2023/10/18 05:09:18;;;;;;;5.53;4.17;;;;;;;;;;5053129;28;20230;-87
2023/10/18 05:11:54;;;;;;;5.63;4.07;;;;;;;;;;5040464;28;20664;-86
2023/10/18 05:14:35;;;;;;;4.63;3.80;;;;;;;;;;5045519;28;20251;-85
2023/10/18 05:17:10;;;;;;;5.50;4.37;;;;;;;;;;5052362;28;20282;-86
2023/10/18 05:19:41;;;;;;;7.33;4.13;;;;;;;;;;5051901;28;20205;-86
2023/10/18 05:22:08;;;;;;;4.83;4.10;;;;;;;;;;5052031;28;20278;-82
2023/10/18 05:24:38;;;;;;;5.60;4.47;;;;;;;;;;5052626;28;20242;-85
2023/10/18 05:27:19;;;;;;;6.97;4.77;;;;;;;;;;5056015;28;20265;-86
2023/10/18 05:29:51;;;;;;;6.30;4.90;;;;;;;;;;5056417;28;20207;-84
2023/10/18 05:32:37;;;;;;;6.47;4.73;;;;;;;;;;5056905;28;20286;-88
2023/10/18 05:35:19;;;;;;;6.90;4.77;;;;;;;;;;5056545;28;20198;-85
2023/10/18 05:37:50;;;;;;;8.30;5.03;;;;;;;;;;5054887;28;20572;-87
2023/10/18 05:43:05;;;;;;;8.60;5.73;;;;;;;;;;5049589;28;20270;-89
2023/10/18 05:45:32;;;;;;;9.60;5.37;;;;;;;;;;5072676;28;20231;-87
2023/10/18 05:48:03;;;;;;;8.87;5.33;;;;;;;;;;5056258;28;20283;-86
2023/10/18 05:50:34;;;;;;;9.10;4.97;;;;;;;;;;5056856;28;20260;-87
2023/10/18 05:53:10;;;;;;;8.37;5.47;;;;;;;;;;5056975;28;20203;-88
2023/10/18 05:55:39;;;;;;;6.93;5.07;;;;;;;;;;5056724;28;20195;-86
2023/10/18 05:58:06;;;;;;;7.47;4.67;;;;;;;;;;5056706;28;20208;-85
2023/10/18 06:00:35;;;;;;;8.03;5.03;;;;;;;;;;5057107;28;20601;-87
2023/10/18 06:03:02;;;;;;;5.60;4.57;;;;;;;;;;5057123;28;20206;-87
2023/10/18 06:05:33;;;;;;;7.87;4.93;;;;;;;;;;5057849;28;20266;-88
2023/10/18 06:08:01;;;;;;;7.40;5.03;;;;;;;;;;5057795;28;20246;-89
2023/10/18 06:10:28;;;;;;;9.83;5.33;;;;;;;;;;5057357;28;20204;-89
2023/10/18 06:13:05;;;;;;;6.87;4.73;;;;;;;;;;5056710;28;20227;-86
2023/10/18 06:15:38;;;;;;;7.43;4.93;;;;;;;;;;5057367;28;20296;-88
2023/10/18 06:18:07;;;;;;;5.40;4.80;;;;;;;;;;5056053;28;20719;-88
2023/10/18 06:20:36;;;;;;;6.13;4.60;;;;;;;;;;5054225;28;20208;-88
2023/10/18 06:23:28;;;;;;;7.50;4.83;;;;;;;;;;5043202;28;20210;-88
2023/10/18 06:25:57;;;;;;;6.53;4.50;;;;;;;;;;5049001;28;20291;-88
2023/10/18 06:28:26;;;;;;;6.73;4.80;;;;;;;;;;5056751;28;20567;-86
2023/10/18 06:30:54;;;;;;;5.70;4.80;;;;;;;;;;5055675;28;20214;-88
2023/10/18 06:33:21;;;;;;;6.93;5.10;;;;;;;;;;5056160;28;20234;-87
2023/10/18 06:35:52;;;;;;;5.20;4.70;;;;;;;;;;5055849;28;20199;-86
2023/10/18 06:38:22;;;;;;;5.77;4.40;;;;;;;;;;5056091;28;20199;-89
2023/10/18 06:40:51;;;;;;;6.07;4.73;;;;;;;;;;5055140;28;20660;-87
2023/10/18 06:43:20;;;;;;;6.27;4.30;;;;;;;;;;5034942;28;20212;-84
2023/10/18 06:45:50;;;;;;;8.20;4.57;;;;;;;;;;5010567;28;20610;-82
2023/10/18 06:48:19;;;;;;;5.73;4.30;;;;;;;;;;5053743;28;20232;-84
2023/10/18 06:50:48;;;;;;;5.67;4.47;;;;;;;;;;5054542;28;20196;-85
2023/10/18 06:53:15;;;;;;;6.07;4.57;;;;;;;;;;5054752;28;20207;-85
2023/10/18 06:55:43;;;;;;;4.63;4.23;;;;;;;;;;5054243;28;20200;-85
2023/10/18 06:58:13;;;;;;;7.17;4.23;;;;;;;;;;5054285;28;20200;-86
2023/10/18 07:00:44;;;;;;;4.33;3.93;;;;;;;;;;5053777;28;20644;-85
2023/10/18 07:03:16;;;;;;;5.83;4.30;;;;;;;;;;5054013;28;20687;-85
2023/10/18 07:05:46;;;;;;;4.70;4.17;;;;;;;;;;5054610;28;20227;-86
2023/10/18 07:08:20;;;;;;;7.87;4.37;;;;;;;;;;5054238;28;20196;-85
2023/10/18 07:10:57;;;;;;;8.53;4.20;;;;;;;;;;5053727;28;20200;-84
2023/10/18 07:13:33;;;;;;;5.93;4.40;;;;;;;;;;5053308;28;20199;-85
2023/10/18 07:16:01;;;;;;;6.43;4.27;;;;;;;;;;5052979;28;20254;-85
2023/10/18 07:18:33;;;;;;;5.40;4.50;;;;;;;;;;5054126;28;20294;-86
2023/10/18 07:21:05;;;;;;;5.37;4.00;;;;;;;;;;5053558;28;20199;-85
2023/10/18 07:23:36;;;;;;;7.07;4.00;;;;;;;;;;5053703;28;20188;-85
2023/10/18 07:26:07;;;;;;;4.37;3.67;;;;;;;;;;5052406;28;20248;-85
2023/10/18 07:28:35;;;;;;;6.50;4.10;;;;;;;;;;5054073;28;20297;-88
2023/10/18 07:31:08;;;;;;;6.37;4.20;;;;;;;;;;5053694;28;20196;-85
2023/10/18 07:33:41;;;;;;;10.27;8.30;;;;;;;;;;5053874;28;20207;-86
2023/10/18 07:36:09;;;;;;;9.20;7.50;;;;;;;;;;5053896;28;20200;-85
2023/10/18 07:38:39;;;;;;;16.67;11.70;;;;;;;;;;5053994;28;20610;-85
2023/10/18 07:41:08;;;;;;;22.20;16.40;;;;;;;;;;5053624;28;20803;-83
2023/10/18 07:43:36;;;;;;;17.23;13.23;;;;;;;;;;5052633;28;20206;-85
2023/10/18 07:46:09;;;;;;;14.47;12.23;;;;;;;;;;5052905;28;20676;-84
2023/10/18 07:48:45;;;;;;;11.63;8.47;;;;;;;;;;5052199;28;20192;-85
2023/10/18 07:51:23;;;;;;;8.70;7.50;;;;;;;;;;5053228;28;20196;-86
2023/10/18 07:53:54;;;;;;;10.23;6.43;;;;;;;;;;5053353;28;20198;-85
2023/10/18 07:56:27;;;;;;;13.63;9.93;;;;;;;;;;5052277;28;21096;-83
2023/10/18 07:58:55;;;;;;;21.13;15.37;;;;;;;;;;5052326;28;20660;-84
2023/10/18 08:04:05;;;;;;;15.17;10.40;;;;;;;;;;5052001;28;21047;-84
2023/10/18 08:06:33;;;;;;;11.97;9.10;;;;;;;;;;5051587;28;20233;-84
2023/10/18 08:09:05;;;;;;;10.67;7.03;;;;;;;;;;5052242;28;20211;-84
2023/10/18 08:11:34;;;;;;;7.63;5.40;;;;;;;;;;5052502;28;20204;-85
2023/10/18 08:14:16;;;;;;;8.50;5.47;;;;;;;;;;5052682;28;20287;-83
2023/10/18 08:16:52;;;;;;;8.93;6.77;;;;;;;;;;5052322;28;20200;-84
2023/10/18 08:19:25;;;;;;;14.63;10.57;;;;;;;;;;5052196;28;20723;-83
2023/10/18 08:24:35;;;;;;;15.20;10.53;;;;;;;;;;5049289;28;20318;-84
2023/10/18 08:27:09;;;;;;;11.30;8.70;;;;;;;;;;5052068;28;20239;-85
2023/10/18 08:29:36;;;;;;;8.57;6.10;;;;;;;;;;5050339;28;20302;-86
2023/10/18 08:32:09;;;;;;;8.90;5.87;;;;;;;;;;5051870;28;20227;-86
2023/10/18 08:34:37;;;;;;;9.87;5.47;;;;;;;;;;5052392;28;20203;-87
2023/10/18 08:37:06;;;;;;;8.40;5.70;;;;;;;;;;5034677;28;20676;-86
2023/10/18 08:39:39;;;;;;;7.10;5.00;;;;;;;;;;5052483;28;20240;-87
2023/10/18 08:42:10;;;;;;;8.87;4.97;;;;;;;;;;5052454;28;20203;-85
2023/10/18 08:44:39;;;;;;;9.00;6.10;;;;;;;;;;5052841;28;20203;-84
2023/10/18 08:47:12;;;;;;;8.17;6.03;;;;;;;;;;5051934;28;20255;-87
2023/10/18 08:49:55;;;;;;;8.40;4.50;;;;;;;;;;5051888;28;20211;-85
2023/10/18 08:52:23;;;;;;;7.83;4.10;;;;;;;;;;5039405;28;20262;-84
2023/10/18 08:54:51;;;;;;;5.30;4.00;;;;;;;;;;5051272;28;20202;-85
2023/10/18 08:57:32;;;;;;;6.63;3.83;;;;;;;;;;5044127;28;20208;-86
2023/10/18 09:00:17;;;;;;;4.27;3.30;;;;;;;;;;5032044;28;20199;-85
2023/10/18 09:02:44;;;;;;;7.05;3.55;;;;;;;;;;5031698;28;20578;-84
2023/10/18 09:05:13;;;;;;;5.32;3.20;;;;;;;;;;5031076;28;20200;-85
2023/10/18 09:07:45;;;;;;;3.88;3.08;;;;;;;;;;5045966;28;20206;-86
2023/10/18 09:10:13;;;;;;;4.75;2.88;;;;;;;;;;5030977;28;20196;-84
2023/10/18 09:15:29;;;;;;;3.97;2.70;;;;;;;;;;5009517;28;20201;-85
2023/10/18 09:17:56;;;;;;;5.53;3.47;;;;;;;;;;5009720;28;20224;-84
2023/10/18 09:20:27;;;;;;;4.97;2.83;;;;;;;;;;5009067;28;20288;-83
2023/10/18 09:22:54;;;;;;;4.50;3.30;;;;;;;;;;5009174;28;20680;-83
2023/10/18 09:25:24;;;;;;;6.32;3.28;;;;;;;;;;5008906;28;20677;-84
2023/10/18 09:27:52;;;;;;;6.32;3.92;;;;;;;;;;5009667;28;20201;-87
2023/10/18 09:30:19;;;;;;;6.10;3.67;;;;;;;;;;5011628;28;20256;-84
2023/10/18 09:32:47;;;;;;;4.45;3.63;;;;;;;;;;5008862;28;20200;-83
2023/10/18 09:35:14;;;;;;;5.30;3.92;;;;;;;;;;5008900;28;20197;-83
2023/10/18 09:37:45;;;;;;;5.00;3.30;;;;;;;;;;5008803;28;20744;-84
2023/10/18 09:40:12;;;;;;;4.32;3.40;;;;;;;;;;5008513;28;20205;-84
2023/10/18 09:42:40;;;;;;;4.68;3.47;;;;;;;;;;5009099;28;20288;-83
2023/10/18 09:45:08;;;;;;;5.82;3.70;;;;;;;;;;5012551;28;20221;-85
2023/10/18 09:47:37;;;;;;;5.80;3.90;;;;;;;;;;5028539;28;20331;-84
2023/10/18 09:50:09;;;;;;;6.18;3.80;;;;;;;;;;5027806;28;20211;-83
2023/10/18 09:52:47;;;;;;;6.95;4.03;;;;;;;;;;5030289;28;20221;-83
2023/10/18 09:55:20;;;;;;;8.02;4.03;;;;;;;;;;5030418;28;20203;-84
2023/10/18 09:57:59;;;;;;;7.05;4.22;;;;;;;;;;5030845;28;20211;-83
2023/10/18 10:00:29;;;;;;;5.55;3.95;;;;;;;;;;5031010;28;20200;-82
2023/10/18 10:02:58;;;;;;;6.30;4.53;;;;;;;;;;5030841;28;20199;-83
2023/10/18 10:05:26;;;;;;;4.90;3.80;;;;;;;;;;5031459;28;20208;-84
2023/10/18 10:08:00;;;;;;;5.28;3.67;;;;;;;;;;5032915;28;20204;-82
2023/10/18 10:13:32;;;;;;;5.63;3.30;;;;;;;;;;5150413;27;20565;-83
2023/10/18 10:16:03;;;;;;;4.18;2.95;;;;;;;;;;5150163;27;20192;-83
2023/10/18 10:18:32;;;;;;;3.90;3.10;;;;;;;;;;5150438;27;20629;-86
2023/10/18 10:21:12;;;;;;;3.20;2.50;;;;;;;;;;5149924;27;20196;-84
2023/10/18 10:23:42;;;;;;;3.38;2.60;;;;;;;;;;5149299;27;20227;-84
2023/10/18 10:26:15;;;;;;;2.90;2.00;;;;;;;;;;5149912;27;20652;-84
2023/10/18 10:31:51;;;;;;;2.03;1.80;;;;;;;;;;5138522;27;20604;-83
2023/10/18 10:34:26;;;;;;;2.45;1.88;;;;;;;;;;5149985;27;20244;-82
2023/10/18 10:36:54;;;;;;;2.00;1.65;;;;;;;;;;5149715;27;20207;-84
2023/10/18 10:39:32;;;;;;;3.00;1.98;;;;;;;;;;5149943;27;20603;-85
2023/10/18 10:42:09;;;;;;;2.13;1.58;;;;;;;;;;5149384;27;20192;-85
2023/10/18 10:44:55;;;;;;;2.17;1.67;;;;;;;;;;5149927;27;20192;-85
2023/10/18 10:47:42;;;;;;;2.30;1.90;;;;;;;;;;5146477;27;20295;-86
2023/10/18 10:50:10;;;;;;;2.63;2.10;;;;;;;;;;5149371;27;20200;-84
2023/10/18 10:52:44;;;;;;;1.70;1.60;;;;;;;;;;5138931;27;20228;-85
2023/10/18 10:55:19;;;;;;;3.25;1.58;;;;;;;;;;5135618;27;20231;-83
2023/10/18 10:57:48;;;;;;;1.85;1.50;;;;;;;;;;5148652;27;20562;-85
2023/10/18 11:03:26;;;;;;;1.20;1.10;;;;;;;;;;5149415;27;20723;-83
2023/10/18 11:05:58;;;;;;;1.30;1.20;;;;;;;;;;5147589;27;20565;-82
2023/10/18 11:08:25;;;;;;;1.42;1.05;;;;;;;;;;5148500;27;20200;-81
2023/10/18 11:10:53;;;;;;;0.95;0.85;;;;;;;;;;5148919;27;20227;-81
2023/10/18 11:13:22;;;;;;;2.67;1.20;;;;;;;;;;5148388;27;20315;-83
2023/10/18 11:15:51;;;;;;;1.27;0.98;;;;;;;;;;5148977;27;20660;-81
2023/10/18 11:18:23;;;;;;;1.92;1.10;;;;;;;;;;5148706;27;20197;-82
2023/10/18 11:21:05;;;;;;;1.33;1.00;;;;;;;;;;5148579;27;20327;-82
2023/10/18 11:23:33;;;;;;;1.75;1.00;;;;;;;;;;5141745;27;20201;-83
2023/10/18 11:26:08;;;;;;;1.70;1.13;;;;;;;;;;5135060;27;20189;-83
2023/10/18 11:28:37;;;;;;;2.47;1.67;;;;;;;;;;5134653;27;20617;-82
2023/10/18 11:31:04;;;;;;;2.20;1.60;;;;;;;;;;5127830;27;20284;-81
2023/10/18 11:33:36;;;;;;;1.65;1.48;;;;;;;;;;5125440;27;20227;-83
2023/10/18 11:36:04;;;;;;;1.65;1.55;;;;;;;;;;5124156;27;20204;-81
2023/10/18 11:38:34;;;;;;;5.07;2.30;;;;;;;;;;5128683;27;20205;-82
2023/10/18 11:41:09;;;;;;;3.13;1.60;;;;;;;;;;5130073;27;20201;-80
2023/10/18 11:43:39;;;;;;;2.78;1.52;;;;;;;;;;5123626;27;20197;-81
2023/10/18 11:46:07;;;;;;;2.80;1.13;;;;;;;;;;5133897;27;20204;-82
2023/10/18 11:48:36;;;;;;;3.47;1.33;;;;;;;;;;5120283;27;20209;-85
2023/10/18 11:51:06;;;;;;;3.78;1.30;;;;;;;;;;5115552;27;20855;-80
2023/10/18 11:53:35;;;;;;;2.70;1.15;;;;;;;;;;5133889;27;20225;-81
2023/10/18 11:56:05;;;;;;;3.20;1.10;;;;;;;;;;5134111;27;20204;-79
2023/10/18 11:58:33;;;;;;;3.20;1.40;;;;;;;;;;5134202;27;20246;-81
2023/10/18 12:01:01;;;;;;;3.58;1.02;;;;;;;;;;5134068;27;20610;-80
2023/10/18 12:03:28;;;;;;;4.22;1.50;;;;;;;;;;5135195;27;20199;-79
2023/10/18 12:05:57;;;;;;;2.55;1.15;;;;;;;;;;5134987;27;20222;-80
2023/10/18 12:08:30;;;;;;;4.72;1.40;;;;;;;;;;5137250;27;20197;-81
2023/10/18 12:10:57;;;;;;;4.43;1.27;;;;;;;;;;5137677;27;20193;-81
2023/10/18 12:13:26;;;;;;;5.95;1.15;;;;;;;;;;5137634;27;20788;-79
2023/10/18 12:15:59;;;;;;;2.17;1.25;;;;;;;;;;5139683;27;20242;-80
2023/10/18 12:18:27;;;;;;;4.30;1.50;;;;;;;;;;5127090;27;20206;-81
2023/10/18 12:20:55;;;;;;;3.45;1.48;;;;;;;;;;5112777;28;20208;-81
2023/10/18 12:23:25;;;;;;;3.50;1.23;;;;;;;;;;5113862;28;20198;-81
2023/10/18 12:25:52;;;;;;;3.88;1.60;;;;;;;;;;5115129;27;20209;-81
2023/10/18 12:28:27;;;;;;;4.20;1.30;;;;;;;;;;5115221;27;20233;-82
2023/10/18 12:30:55;;;;;;;2.85;1.30;;;;;;;;;;5133755;27;20656;-82
2023/10/18 12:33:25;;;;;;;3.03;1.33;;;;;;;;;;5133607;27;20597;-80
2023/10/18 12:35:56;;;;;;;4.57;1.85;;;;;;;;;;5132480;27;20193;-80
2023/10/18 12:38:32;;;;;;;3.28;1.38;;;;;;;;;;5133974;27;20201;-80
2023/10/18 12:41:00;;;;;;;2.92;1.30;;;;;;;;;;5133252;27;20269;-81
2023/10/18 12:43:31;;;;;;;3.05;1.50;;;;;;;;;;5133778;27;20241;-83
2023/10/18 12:46:00;;;;;;;2.88;1.10;;;;;;;;;;5133104;27;20192;-81
2023/10/18 12:48:28;;;;;;;2.10;1.00;;;;;;;;;;5132279;27;20649;-81
2023/10/18 12:50:56;;;;;;;3.28;0.80;;;;;;;;;;5150153;27;20204;-86
2023/10/18 12:56:32;;;;;;;1.65;0.68;;;;;;;;;;5128913;27;20201;-82
2023/10/18 12:59:11;;;;;;;3.00;1.20;;;;;;;;;;5150378;27;20249;-81
2023/10/18 13:01:43;;;;;;;2.53;0.80;;;;;;;;;;5141120;27;20608;-81
2023/10/18 13:04:17;;;;;;;2.10;0.75;;;;;;;;;;5141008;27;20206;-81
2023/10/18 13:06:44;;;;;;;2.78;0.80;;;;;;;;;;5144641;27;20211;-83
2023/10/18 13:09:18;;;;;;;1.98;0.90;;;;;;;;;;5142267;27;20283;-82
2023/10/18 13:11:46;;;;;;;2.05;0.73;;;;;;;;;;5147284;27;20256;-83
2023/10/18 13:14:16;;;;;;;1.85;0.73;;;;;;;;;;5146386;27;20678;-82
2023/10/18 13:16:43;;;;;;;2.22;0.70;;;;;;;;;;5135970;27;20203;-82
2023/10/18 13:19:14;;;;;;;3.17;0.52;;;;;;;;;;5136894;27;20197;-81
2023/10/18 13:21:41;;;;;;;3.95;0.85;;;;;;;;;;5134615;27;20205;-82
2023/10/18 13:24:20;;;;;;;2.22;0.57;;;;;;;;;;5141964;27;20634;-82
2023/10/18 13:26:49;;;;;;;1.70;0.60;;;;;;;;;;5148616;27;20668;-83
2023/10/18 13:29:29;;;;;;;2.75;0.68;;;;;;;;;;5151026;27;20231;-83
2023/10/18 13:31:57;;;;;;;1.55;0.40;;;;;;;;;;5151721;27;20414;-82
2023/10/18 13:34:27;;;;;;;3.75;0.50;;;;;;;;;;5139718;27;20685;-82
2023/10/18 13:36:55;;;;;;;2.90;0.63;;;;;;;;;;5148702;27;20648;-81
2023/10/18 13:39:23;;;;;;;3.13;0.70;;;;;;;;;;5136319;27;20215;-81
2023/10/18 13:41:51;;;;;;;2.95;0.90;;;;;;;;;;5139935;27;20201;-82
2023/10/18 13:44:20;;;;;;;1.33;0.30;;;;;;;;;;5130974;27;20284;-81
2023/10/18 13:46:50;;;;;;;2.25;0.50;;;;;;;;;;5134953;27;20188;-80
2023/10/18 13:49:18;;;;;;;1.35;0.40;;;;;;;;;;5131835;27;20201;-84
2023/10/18 13:51:45;;;;;;;0.65;0.40;;;;;;;;;;5131895;27;20189;-81
2023/10/18 13:54:13;;;;;;;2.53;0.30;;;;;;;;;;5134848;27;20220;-80
2023/10/18 13:56:40;;;;;;;3.15;0.70;;;;;;;;;;5146183;27;21592;-82
2023/10/18 13:59:09;;;;;;;1.00;0.50;;;;;;;;;;5145749;27;20677;-79
2023/10/18 14:01:38;;;;;;;2.45;0.60;;;;;;;;;;5135498;27;20193;-81
2023/10/18 14:04:08;;;;;;;1.83;0.68;;;;;;;;;;5146669;27;20245;-81
2023/10/18 14:06:35;;;;;;;1.42;0.60;;;;;;;;;;5134686;27;20197;-81
2023/10/18 14:09:04;;;;;;;5.03;0.60;;;;;;;;;;5134326;27;20225;-80
2023/10/18 14:11:33;;;;;;;2.80;0.70;;;;;;;;;;5144186;27;20343;-80
2023/10/18 14:14:00;;;;;;;2.33;0.70;;;;;;;;;;5135044;27;20285;-79
2023/10/18 14:16:28;;;;;;;1.63;0.40;;;;;;;;;;5136863;27;20196;-80
2023/10/18 14:18:56;;;;;;;1.95;0.43;;;;;;;;;;5149934;27;20637;-79
2023/10/18 14:21:24;;;;;;;1.80;0.70;;;;;;;;;;5140449;27;20199;-81
2023/10/18 14:23:54;;;;;;;3.60;1.10;;;;;;;;;;5147331;27;20193;-81
2023/10/18 14:26:24;;;;;;;3.83;0.70;;;;;;;;;;5134761;27;20231;-80
2023/10/18 14:28:51;;;;;;;3.22;0.80;;;;;;;;;;5144652;27;20189;-81
2023/10/18 14:31:20;;;;;;;3.80;1.05;;;;;;;;;;5135196;27;20283;-79
2023/10/18 14:33:49;;;;;;;4.18;0.95;;;;;;;;;;5143645;27;20817;-80
2023/10/18 14:36:18;;;;;;;3.83;0.90;;;;;;;;;;5133595;27;20224;-79
2023/10/18 14:38:45;;;;;;;2.97;0.93;;;;;;;;;;5130845;27;20193;-81
2023/10/18 14:41:22;;;;;;;4.32;0.95;;;;;;;;;;5133770;27;20232;-80
2023/10/18 14:43:50;;;;;;;5.13;1.00;;;;;;;;;;5142053;27;20244;-80
2023/10/18 14:46:19;;;;;;;4.22;0.90;;;;;;;;;;5137736;27;20212;-78
2023/10/18 14:48:46;;;;;;;4.43;1.25;;;;;;;;;;5135714;27;20248;-79
2023/10/18 14:51:15;;;;;;;5.93;1.27;;;;;;;;;;5137591;27;20224;-80
2023/10/18 14:53:42;;;;;;;4.47;0.90;;;;;;;;;;5129350;27;20901;-80
2023/10/18 14:56:12;;;;;;;3.13;1.30;;;;;;;;;;5127360;27;20201;-80
2023/10/18 14:58:41;;;;;;;4.82;0.80;;;;;;;;;;5139613;27;20193;-80
2023/10/18 15:01:10;;;;;;;2.33;0.80;;;;;;;;;;5154146;27;20216;-80
2023/10/18 15:03:38;;;;;;;6.68;1.55;;;;;;;;;;5140052;27;20257;-80
2023/10/18 15:06:08;;;;;;;3.45;1.10;;;;;;;;;;5130969;27;20220;-79
2023/10/18 15:08:37;;;;;;;3.40;1.25;;;;;;;;;;5138294;27;20221;-80
2023/10/18 15:11:12;;;;;;;4.07;1.20;;;;;;;;;;5150369;27;20284;-80
2023/10/18 15:13:40;;;;;;;6.82;1.10;;;;;;;;;;5145363;27;20314;-81
2023/10/18 15:16:07;;;;;;;8.40;1.48;;;;;;;;;;5135407;27;20228;-81
2023/10/18 15:18:35;;;;;;;4.03;1.00;;;;;;;;;;5134275;27;20237;-80
2023/10/18 15:21:03;;;;;;;5.43;1.35;;;;;;;;;;5150775;27;20204;-81
2023/10/18 15:23:30;;;;;;;4.22;1.00;;;;;;;;;;5142946;27;20209;-82
2023/10/18 15:26:04;;;;;;;6.40;1.20;;;;;;;;;;5135584;27;20188;-81
2023/10/18 15:28:32;;;;;;;7.13;1.33;;;;;;;;;;5143722;27;20185;-79
2023/10/18 15:31:08;;;;;;;5.93;1.17;;;;;;;;;;5140865;27;20284;-80
2023/10/18 15:33:36;;;;;;;7.72;1.35;;;;;;;;;;5135637;27;20315;-78